sensor_id;sensor_type;location;lat;lon;timestamp;temperature;humidity
18131;DHT22;9191;54.324;10.126;2023-05-27T00:02:02;10.90;99.90
18131;DHT22;9191;54.324;10.126;2023-05-27T00:04:30;11.00;99.90
18131;DHT22;9191;54.324;10.126;2023-05-27T00:06:56;10.90;99.90
18131;DHT22;9191;54.324;10.126;2023-05-27T00:09:23;10.90;99.90
18131;DHT22;9191;54.324;10.126;2023-05-27T00:11:50;10.80;99.90
18131;DHT22;9191;54.324;10.126;2023-05-27T00:14:17;10.90;99.90
18131;DHT22;9191;54.324;10.126;2023-05-27T00:16:45;10.80;99.90
18131;DHT22;9191;54.324;10.126;2023-05-27T00:19:12;10.80;99.90
18131;DHT22;9191;54.324;10.126;2023-05-27T00:21:40;10.70;99.90
18131;DHT22;9191;54.324;10.126;2023-05-27T00:24:07;10.70;99.90
18131;DHT22;9191;54.324;10.126;2023-05-27T00:26:34;10.70;99.90
18131;DHT22;9191;54.324;10.126;2023-05-27T00:29:01;10.70;99.90
18131;DHT22;9191;54.324;10.126;2023-05-27T00:31:27;10.70;99.90
18131;DHT22;9191;54.324;10.126;2023-05-27T00:33:54;10.70;99.90
18131;DHT22;9191;54.324;10.126;2023-05-27T00:36:21;10.60;99.90
18131;DHT22;9191;54.324;10.126;2023-05-27T00:38:49;10.60;99.90
18131;DHT22;9191;54.324;10.126;2023-05-27T00:41:15;10.50;99.90
18131;DHT22;9191;54.324;10.126;2023-05-27T00:43:42;10.50;99.90
18131;DHT22;9191;54.324;10.126;2023-05-27T00:46:09;10.60;99.90
18131;DHT22;9191;54.324;10.126;2023-05-27T00:48:35;10.50;99.90
18131;DHT22;9191;54.324;10.126;2023-05-27T00:51:02;10.40;99.90
18131;DHT22;9191;54.324;10.126;2023-05-27T00:53:30;10.40;99.90
18131;DHT22;9191;54.324;10.126;2023-05-27T00:56:02;10.40;99.90
18131;DHT22;9191;54.324;10.126;2023-05-27T00:58:28;10.40;99.90
18131;DHT22;9191;54.324;10.126;2023-05-27T01:00:56;10.30;99.90
18131;DHT22;9191;54.324;10.126;2023-05-27T01:03:22;10.30;99.90
18131;DHT22;9191;54.324;10.126;2023-05-27T01:05:50;10.30;99.90
18131;DHT22;9191;54.324;10.126;2023-05-27T01:08:21;10.20;99.90
18131;DHT22;9191;54.324;10.126;2023-05-27T01:10:50;10.20;99.90
18131;DHT22;9191;54.324;10.126;2023-05-27T01:13:21;10.20;99.90
18131;DHT22;9191;54.324;10.126;2023-05-27T01:15:52;10.20;99.90
18131;DHT22;9191;54.324;10.126;2023-05-27T01:18:19;10.20;99.90
18131;DHT22;9191;54.324;10.126;2023-05-27T01:20:48;10.30;99.90
18131;DHT22;9191;54.324;10.126;2023-05-27T01:23:18;10.20;99.90
18131;DHT22;9191;54.324;10.126;2023-05-27T01:25:45;10.10;99.90
18131;DHT22;9191;54.324;10.126;2023-05-27T01:28:11;10.20;99.90
18131;DHT22;9191;54.324;10.126;2023-05-27T01:30:38;10.20;99.90
18131;DHT22;9191;54.324;10.126;2023-05-27T01:33:07;10.20;99.90
18131;DHT22;9191;54.324;10.126;2023-05-27T01:35:36;10.10;99.90
18131;DHT22;9191;54.324;10.126;2023-05-27T01:38:06;10.00;99.90
18131;DHT22;9191;54.324;10.126;2023-05-27T01:40:35;10.00;99.90
18131;DHT22;9191;54.324;10.126;2023-05-27T01:43:01;10.10;99.90
18131;DHT22;9191;54.324;10.126;2023-05-27T01:45:28;10.00;99.90
18131;DHT22;9191;54.324;10.126;2023-05-27T01:47:55;10.00;99.90
18131;DHT22;9191;54.324;10.126;2023-05-27T01:50:22;10.10;99.90
18131;DHT22;9191;54.324;10.126;2023-05-27T01:52:49;10.00;99.90
18131;DHT22;9191;54.324;10.126;2023-05-27T01:55:16;10.10;99.90
18131;DHT22;9191;54.324;10.126;2023-05-27T01:57:44;10.00;99.90
18131;DHT22;9191;54.324;10.126;2023-05-27T02:00:11;9.90;99.90
18131;DHT22;9191;54.324;10.126;2023-05-27T02:02:38;9.90;99.90
18131;DHT22;9191;54.324;10.126;2023-05-27T02:05:05;9.80;99.90
18131;DHT22;9191;54.324;10.126;2023-05-27T02:07:32;9.80;99.90
18131;DHT22;9191;54.324;10.126;2023-05-27T02:09:59;9.80;99.90
18131;DHT22;9191;54.324;10.126;2023-05-27T02:12:25;9.70;99.90
18131;DHT22;9191;54.324;10.126;2023-05-27T02:14:53;9.70;99.90
18131;DHT22;9191;54.324;10.126;2023-05-27T02:17:20;9.70;99.90
18131;DHT22;9191;54.324;10.126;2023-05-27T02:19:49;9.60;99.90
18131;DHT22;9191;54.324;10.126;2023-05-27T02:22:16;9.60;99.90
18131;DHT22;9191;54.324;10.126;2023-05-27T02:24:43;9.60;99.90
18131;DHT22;9191;54.324;10.126;2023-05-27T02:27:10;9.50;99.90
18131;DHT22;9191;54.324;10.126;2023-05-27T02:29:37;9.50;99.90
18131;DHT22;9191;54.324;10.126;2023-05-27T02:32:05;9.40;99.90
18131;DHT22;9191;54.324;10.126;2023-05-27T02:34:32;9.40;99.90
18131;DHT22;9191;54.324;10.126;2023-05-27T02:37:02;9.50;99.90
18131;DHT22;9191;54.324;10.126;2023-05-27T02:39:29;9.40;99.90
18131;DHT22;9191;54.324;10.126;2023-05-27T02:41:56;9.40;99.90
18131;DHT22;9191;54.324;10.126;2023-05-27T02:44:23;9.40;99.90
18131;DHT22;9191;54.324;10.126;2023-05-27T02:46:49;9.40;99.90
18131;DHT22;9191;54.324;10.126;2023-05-27T02:49:17;9.30;99.90
18131;DHT22;9191;54.324;10.126;2023-05-27T02:51:44;9.30;99.90
18131;DHT22;9191;54.324;10.126;2023-05-27T02:54:11;9.30;99.90
18131;DHT22;9191;54.324;10.126;2023-05-27T02:56:38;9.20;99.90
18131;DHT22;9191;54.324;10.126;2023-05-27T02:59:04;9.20;99.90
18131;DHT22;9191;54.324;10.126;2023-05-27T03:01:31;9.20;99.90
18131;DHT22;9191;54.324;10.126;2023-05-27T03:03:58;9.30;99.90
18131;DHT22;9191;54.324;10.126;2023-05-27T03:06:26;9.30;99.90
18131;DHT22;9191;54.324;10.126;2023-05-27T03:08:54;9.30;99.90
18131;DHT22;9191;54.324;10.126;2023-05-27T03:11:21;9.20;99.90
18131;DHT22;9191;54.324;10.126;2023-05-27T03:13:48;9.20;99.90
18131;DHT22;9191;54.324;10.126;2023-05-27T03:16:14;9.20;99.90
18131;DHT22;9191;54.324;10.126;2023-05-27T03:18:41;9.20;99.90
18131;DHT22;9191;54.324;10.126;2023-05-27T03:21:08;9.20;99.90
18131;DHT22;9191;54.324;10.126;2023-05-27T03:23:36;9.20;99.90
18131;DHT22;9191;54.324;10.126;2023-05-27T03:26:02;9.20;99.90
18131;DHT22;9191;54.324;10.126;2023-05-27T03:28:29;9.30;99.90
18131;DHT22;9191;54.324;10.126;2023-05-27T03:30:56;9.20;99.90
18131;DHT22;9191;54.324;10.126;2023-05-27T03:33:23;9.20;99.90
18131;DHT22;9191;54.324;10.126;2023-05-27T03:35:50;9.20;99.90
18131;DHT22;9191;54.324;10.126;2023-05-27T03:38:16;9.20;99.90
18131;DHT22;9191;54.324;10.126;2023-05-27T03:40:44;9.20;99.90
18131;DHT22;9191;54.324;10.126;2023-05-27T03:43:11;9.10;99.90
18131;DHT22;9191;54.324;10.126;2023-05-27T03:45:38;9.10;99.90
18131;DHT22;9191;54.324;10.126;2023-05-27T03:48:04;9.10;99.90
18131;DHT22;9191;54.324;10.126;2023-05-27T03:50:31;9.20;99.90
18131;DHT22;9191;54.324;10.126;2023-05-27T03:52:58;9.30;99.90
18131;DHT22;9191;54.324;10.126;2023-05-27T03:55:25;9.20;99.90
18131;DHT22;9191;54.324;10.126;2023-05-27T03:57:53;9.20;99.90
18131;DHT22;9191;54.324;10.126;2023-05-27T04:00:20;9.20;99.90
18131;DHT22;9191;54.324;10.126;2023-05-27T04:02:47;9.20;99.90
18131;DHT22;9191;54.324;10.126;2023-05-27T04:05:14;9.30;99.90
18131;DHT22;9191;54.324;10.126;2023-05-27T04:07:42;9.30;99.90
18131;DHT22;9191;54.324;10.126;2023-05-27T04:10:09;9.40;99.90
18131;DHT22;9191;54.324;10.126;2023-05-27T04:12:36;9.40;99.90
18131;DHT22;9191;54.324;10.126;2023-05-27T04:15:04;9.40;99.90
18131;DHT22;9191;54.324;10.126;2023-05-27T04:17:31;9.40;99.90
18131;DHT22;9191;54.324;10.126;2023-05-27T04:19:58;9.40;99.90
18131;DHT22;9191;54.324;10.126;2023-05-27T04:22:25;9.40;99.90
18131;DHT22;9191;54.324;10.126;2023-05-27T04:24:52;9.40;99.90
18131;DHT22;9191;54.324;10.126;2023-05-27T04:27:18;9.50;99.90
18131;DHT22;9191;54.324;10.126;2023-05-27T04:29:45;9.60;99.90
18131;DHT22;9191;54.324;10.126;2023-05-27T04:32:14;9.60;99.90
18131;DHT22;9191;54.324;10.126;2023-05-27T04:34:42;9.60;99.90
18131;DHT22;9191;54.324;10.126;2023-05-27T04:37:09;9.60;99.90
18131;DHT22;9191;54.324;10.126;2023-05-27T04:39:36;9.60;99.90
18131;DHT22;9191;54.324;10.126;2023-05-27T04:42:06;9.70;99.90
18131;DHT22;9191;54.324;10.126;2023-05-27T04:44:34;9.70;99.90
18131;DHT22;9191;54.324;10.126;2023-05-27T04:47:01;9.70;99.90
18131;DHT22;9191;54.324;10.126;2023-05-27T04:49:29;9.80;99.90
18131;DHT22;9191;54.324;10.126;2023-05-27T04:51:55;9.90;99.90
18131;DHT22;9191;54.324;10.126;2023-05-27T04:54:22;10.00;99.90
18131;DHT22;9191;54.324;10.126;2023-05-27T04:56:49;10.00;99.90
18131;DHT22;9191;54.324;10.126;2023-05-27T04:59:17;10.10;99.90
18131;DHT22;9191;54.324;10.126;2023-05-27T05:01:45;10.20;99.90
18131;DHT22;9191;54.324;10.126;2023-05-27T05:04:36;10.20;99.90
18131;DHT22;9191;54.324;10.126;2023-05-27T05:07:03;10.30;99.90
18131;DHT22;9191;54.324;10.126;2023-05-27T05:09:30;10.30;99.90
18131;DHT22;9191;54.324;10.126;2023-05-27T05:11:56;10.40;99.90
18131;DHT22;9191;54.324;10.126;2023-05-27T05:14:23;10.60;99.90
18131;DHT22;9191;54.324;10.126;2023-05-27T05:16:50;10.60;99.90
18131;DHT22;9191;54.324;10.126;2023-05-27T05:19:16;10.70;99.90
18131;DHT22;9191;54.324;10.126;2023-05-27T05:21:44;10.90;99.90
18131;DHT22;9191;54.324;10.126;2023-05-27T05:24:11;11.00;99.90
18131;DHT22;9191;54.324;10.126;2023-05-27T05:26:37;11.20;99.90
18131;DHT22;9191;54.324;10.126;2023-05-27T05:29:04;11.40;99.90
18131;DHT22;9191;54.324;10.126;2023-05-27T05:31:31;11.50;99.90
18131;DHT22;9191;54.324;10.126;2023-05-27T05:33:57;11.50;99.90
18131;DHT22;9191;54.324;10.126;2023-05-27T05:36:24;11.60;99.90
18131;DHT22;9191;54.324;10.126;2023-05-27T05:38:52;11.70;99.90
18131;DHT22;9191;54.324;10.126;2023-05-27T05:41:19;11.70;99.90
18131;DHT22;9191;54.324;10.126;2023-05-27T05:43:45;11.70;99.90
18131;DHT22;9191;54.324;10.126;2023-05-27T05:46:12;11.70;99.90
18131;DHT22;9191;54.324;10.126;2023-05-27T05:48:39;11.90;99.90
18131;DHT22;9191;54.324;10.126;2023-05-27T05:51:05;12.00;99.90
18131;DHT22;9191;54.324;10.126;2023-05-27T05:53:32;12.10;99.90
18131;DHT22;9191;54.324;10.126;2023-05-27T05:56:00;12.10;99.90
18131;DHT22;9191;54.324;10.126;2023-05-27T05:58:26;12.30;99.90
18131;DHT22;9191;54.324;10.126;2023-05-27T06:00:53;12.40;99.90
18131;DHT22;9191;54.324;10.126;2023-05-27T06:03:20;12.60;99.90
18131;DHT22;9191;54.324;10.126;2023-05-27T06:05:47;12.60;99.90
18131;DHT22;9191;54.324;10.126;2023-05-27T06:08:13;12.70;99.90
18131;DHT22;9191;54.324;10.126;2023-05-27T06:10:40;12.80;99.90
18131;DHT22;9191;54.324;10.126;2023-05-27T06:13:08;12.90;99.90
18131;DHT22;9191;54.324;10.126;2023-05-27T06:15:36;12.90;99.90
18131;DHT22;9191;54.324;10.126;2023-05-27T06:18:03;13.10;99.90
18131;DHT22;9191;54.324;10.126;2023-05-27T06:20:30;13.30;99.90
18131;DHT22;9191;54.324;10.126;2023-05-27T06:22:57;13.30;99.90
18131;DHT22;9191;54.324;10.126;2023-05-27T06:25:23;13.50;99.90
18131;DHT22;9191;54.324;10.126;2023-05-27T06:27:50;13.50;99.90
18131;DHT22;9191;54.324;10.126;2023-05-27T06:30:18;13.40;99.90
18131;DHT22;9191;54.324;10.126;2023-05-27T06:32:44;13.40;99.90
18131;DHT22;9191;54.324;10.126;2023-05-27T06:35:11;13.20;99.90
18131;DHT22;9191;54.324;10.126;2023-05-27T06:37:38;13.10;99.90
18131;DHT22;9191;54.324;10.126;2023-05-27T06:40:05;13.20;99.90
18131;DHT22;9191;54.324;10.126;2023-05-27T06:42:32;13.30;99.90
18131;DHT22;9191;54.324;10.126;2023-05-27T06:44:58;13.60;99.90
18131;DHT22;9191;54.324;10.126;2023-05-27T06:47:26;13.90;99.90
18131;DHT22;9191;54.324;10.126;2023-05-27T06:49:53;13.90;99.90
18131;DHT22;9191;54.324;10.126;2023-05-27T06:52:20;13.90;99.90
18131;DHT22;9191;54.324;10.126;2023-05-27T06:54:47;13.80;99.90
18131;DHT22;9191;54.324;10.126;2023-05-27T06:57:13;13.70;99.90
18131;DHT22;9191;54.324;10.126;2023-05-27T06:59:40;13.80;99.90
18131;DHT22;9191;54.324;10.126;2023-05-27T07:02:09;14.00;99.90
18131;DHT22;9191;54.324;10.126;2023-05-27T07:04:37;14.00;99.90
18131;DHT22;9191;54.324;10.126;2023-05-27T07:07:04;13.90;99.90
18131;DHT22;9191;54.324;10.126;2023-05-27T07:09:31;13.80;99.90
18131;DHT22;9191;54.324;10.126;2023-05-27T07:11:57;14.10;99.90
18131;DHT22;9191;54.324;10.126;2023-05-27T07:14:24;14.20;99.90
18131;DHT22;9191;54.324;10.126;2023-05-27T07:16:51;14.50;99.90
18131;DHT22;9191;54.324;10.126;2023-05-27T07:19:17;14.70;99.90
18131;DHT22;9191;54.324;10.126;2023-05-27T07:21:45;14.50;99.90
18131;DHT22;9191;54.324;10.126;2023-05-27T07:24:12;14.60;99.90
18131;DHT22;9191;54.324;10.126;2023-05-27T07:26:38;14.80;99.90
18131;DHT22;9191;54.324;10.126;2023-05-27T07:29:05;14.80;99.90
18131;DHT22;9191;54.324;10.126;2023-05-27T07:31:32;14.80;99.90
18131;DHT22;9191;54.324;10.126;2023-05-27T07:33:58;15.30;99.90
18131;DHT22;9191;54.324;10.126;2023-05-27T07:36:25;15.60;99.90
18131;DHT22;9191;54.324;10.126;2023-05-27T07:38:53;15.90;99.90
18131;DHT22;9191;54.324;10.126;2023-05-27T07:41:20;16.00;99.90
18131;DHT22;9191;54.324;10.126;2023-05-27T07:43:46;16.00;99.90
18131;DHT22;9191;54.324;10.126;2023-05-27T07:46:16;16.00;99.90
18131;DHT22;9191;54.324;10.126;2023-05-27T07:48:43;16.20;99.90
18131;DHT22;9191;54.324;10.126;2023-05-27T07:51:09;16.10;99.90
18131;DHT22;9191;54.324;10.126;2023-05-27T07:53:36;16.10;99.90
18131;DHT22;9191;54.324;10.126;2023-05-27T07:56:04;16.20;99.90
18131;DHT22;9191;54.324;10.126;2023-05-27T07:58:33;16.30;99.90
18131;DHT22;9191;54.324;10.126;2023-05-27T08:00:59;16.50;99.90
18131;DHT22;9191;54.324;10.126;2023-05-27T08:03:26;16.70;99.90
18131;DHT22;9191;54.324;10.126;2023-05-27T08:05:53;17.00;99.90
18131;DHT22;9191;54.324;10.126;2023-05-27T08:08:20;17.10;99.90
18131;DHT22;9191;54.324;10.126;2023-05-27T08:10:49;17.40;99.90
18131;DHT22;9191;54.324;10.126;2023-05-27T08:13:18;17.80;99.90
18131;DHT22;9191;54.324;10.126;2023-05-27T08:15:44;17.90;99.90
18131;DHT22;9191;54.324;10.126;2023-05-27T08:18:12;18.30;99.90
18131;DHT22;9191;54.324;10.126;2023-05-27T08:20:41;18.80;99.90
18131;DHT22;9191;54.324;10.126;2023-05-27T08:23:08;20.10;99.90
18131;DHT22;9191;54.324;10.126;2023-05-27T08:25:35;20.90;99.90
18131;DHT22;9191;54.324;10.126;2023-05-27T08:28:04;21.60;99.90
18131;DHT22;9191;54.324;10.126;2023-05-27T08:30:35;22.20;99.90
18131;DHT22;9191;54.324;10.126;2023-05-27T08:33:01;22.30;99.90
18131;DHT22;9191;54.324;10.126;2023-05-27T08:35:28;22.70;99.90
18131;DHT22;9191;54.324;10.126;2023-05-27T08:37:55;23.10;99.90
18131;DHT22;9191;54.324;10.126;2023-05-27T08:40:21;23.20;99.90
18131;DHT22;9191;54.324;10.126;2023-05-27T08:42:48;23.80;99.90
18131;DHT22;9191;54.324;10.126;2023-05-27T08:45:17;23.30;99.90
18131;DHT22;9191;54.324;10.126;2023-05-27T08:47:46;23.20;99.90
18131;DHT22;9191;54.324;10.126;2023-05-27T08:50:14;23.70;99.90
18131;DHT22;9191;54.324;10.126;2023-05-27T08:52:44;23.40;99.90
18131;DHT22;9191;54.324;10.126;2023-05-27T08:55:11;22.00;99.90
18131;DHT22;9191;54.324;10.126;2023-05-27T08:57:41;20.70;99.90
18131;DHT22;9191;54.324;10.126;2023-05-27T09:00:10;19.80;99.90
18131;DHT22;9191;54.324;10.126;2023-05-27T09:02:40;19.20;99.90
18131;DHT22;9191;54.324;10.126;2023-05-27T09:05:09;19.10;99.90
18131;DHT22;9191;54.324;10.126;2023-05-27T09:07:37;19.50;99.90
18131;DHT22;9191;54.324;10.126;2023-05-27T09:10:04;20.50;99.90
18131;DHT22;9191;54.324;10.126;2023-05-27T09:12:31;20.80;99.90
18131;DHT22;9191;54.324;10.126;2023-05-27T09:14:58;21.50;99.90
18131;DHT22;9191;54.324;10.126;2023-05-27T09:17:26;21.90;99.90
18131;DHT22;9191;54.324;10.126;2023-05-27T09:19:53;23.00;99.90
18131;DHT22;9191;54.324;10.126;2023-05-27T09:22:22;23.60;99.90
18131;DHT22;9191;54.324;10.126;2023-05-27T09:24:51;23.60;99.90
18131;DHT22;9191;54.324;10.126;2023-05-27T09:27:19;24.50;99.90
18131;DHT22;9191;54.324;10.126;2023-05-27T09:29:45;25.10;99.90
18131;DHT22;9191;54.324;10.126;2023-05-27T09:32:12;25.60;99.90
18131;DHT22;9191;54.324;10.126;2023-05-27T09:35:26;25.70;99.90
18131;DHT22;9191;54.324;10.126;2023-05-27T09:37:39;25.80;99.90
18131;DHT22;9191;54.324;10.126;2023-05-27T09:40:06;26.10;99.90
18131;DHT22;9191;54.324;10.126;2023-05-27T09:42:40;26.20;99.90
18131;DHT22;9191;54.324;10.126;2023-05-27T09:45:07;25.70;99.90
18131;DHT22;9191;54.324;10.126;2023-05-27T09:47:37;25.70;99.90
18131;DHT22;9191;54.324;10.126;2023-05-27T09:50:05;25.90;99.90
18131;DHT22;9191;54.324;10.126;2023-05-27T09:52:34;25.70;99.90
18131;DHT22;9191;54.324;10.126;2023-05-27T09:55:02;25.80;99.90
18131;DHT22;9191;54.324;10.126;2023-05-27T09:57:29;25.50;99.90
18131;DHT22;9191;54.324;10.126;2023-05-27T09:59:57;25.30;99.90
18131;DHT22;9191;54.324;10.126;2023-05-27T10:02:25;25.70;99.90
18131;DHT22;9191;54.324;10.126;2023-05-27T10:04:52;25.70;99.90
18131;DHT22;9191;54.324;10.126;2023-05-27T10:07:20;25.30;99.90
18131;DHT22;9191;54.324;10.126;2023-05-27T10:09:57;24.90;99.90
18131;DHT22;9191;54.324;10.126;2023-05-27T10:12:27;25.10;99.90
18131;DHT22;9191;54.324;10.126;2023-05-27T10:15:04;26.10;99.90
18131;DHT22;9191;54.324;10.126;2023-05-27T10:17:40;26.70;99.90
18131;DHT22;9191;54.324;10.126;2023-05-27T10:20:08;27.10;99.90
18131;DHT22;9191;54.324;10.126;2023-05-27T10:25:41;27.60;99.50
18131;DHT22;9191;54.324;10.126;2023-05-27T10:28:22;28.00;99.60
18131;DHT22;9191;54.324;10.126;2023-05-27T10:30:49;28.10;98.80
18131;DHT22;9191;54.324;10.126;2023-05-27T10:33:15;28.00;99.00
18131;DHT22;9191;54.324;10.126;2023-05-27T10:35:43;28.10;98.80
18131;DHT22;9191;54.324;10.126;2023-05-27T10:38:14;28.20;98.60
18131;DHT22;9191;54.324;10.126;2023-05-27T10:40:40;27.90;99.10
18131;DHT22;9191;54.324;10.126;2023-05-27T10:43:15;27.80;98.50
18131;DHT22;9191;54.324;10.126;2023-05-27T10:45:42;27.10;98.10
18131;DHT22;9191;54.324;10.126;2023-05-27T10:48:14;26.70;98.00
18131;DHT22;9191;54.324;10.126;2023-05-27T10:50:41;26.40;97.60
18131;DHT22;9191;54.324;10.126;2023-05-27T10:53:16;27.40;98.00
18131;DHT22;9191;54.324;10.126;2023-05-27T10:55:43;28.40;96.10
18131;DHT22;9191;54.324;10.126;2023-05-27T10:58:10;28.50;95.80
18131;DHT22;9191;54.324;10.126;2023-05-27T11:00:39;27.80;95.40
18131;DHT22;9191;54.324;10.126;2023-05-27T11:03:15;27.60;95.70
18131;DHT22;9191;54.324;10.126;2023-05-27T11:05:42;27.60;96.20
18131;DHT22;9191;54.324;10.126;2023-05-27T11:08:11;27.50;94.60
18131;DHT22;9191;54.324;10.126;2023-05-27T11:10:39;28.40;94.20
18131;DHT22;9191;54.324;10.126;2023-05-27T11:13:06;28.40;95.10
18131;DHT22;9191;54.324;10.126;2023-05-27T11:15:32;28.20;96.40
18131;DHT22;9191;54.324;10.126;2023-05-27T11:18:01;28.80;95.90
18131;DHT22;9191;54.324;10.126;2023-05-27T11:20:33;29.10;94.80
18131;DHT22;9191;54.324;10.126;2023-05-27T11:23:00;29.30;94.40
18131;DHT22;9191;54.324;10.126;2023-05-27T11:25:26;29.90;95.10
18131;DHT22;9191;54.324;10.126;2023-05-27T11:27:53;29.50;95.50
18131;DHT22;9191;54.324;10.126;2023-05-27T11:30:22;29.50;95.40
18131;DHT22;9191;54.324;10.126;2023-05-27T11:32:49;28.80;95.10
18131;DHT22;9191;54.324;10.126;2023-05-27T11:35:17;29.40;95.10
18131;DHT22;9191;54.324;10.126;2023-05-27T11:37:45;29.00;95.50
18131;DHT22;9191;54.324;10.126;2023-05-27T11:40:12;30.50;94.00
18131;DHT22;9191;54.324;10.126;2023-05-27T11:42:42;30.60;93.70
18131;DHT22;9191;54.324;10.126;2023-05-27T11:45:14;29.40;93.60
18131;DHT22;9191;54.324;10.126;2023-05-27T11:47:45;28.60;94.40
18131;DHT22;9191;54.324;10.126;2023-05-27T11:50:18;29.30;95.20
18131;DHT22;9191;54.324;10.126;2023-05-27T11:52:51;28.90;95.60
18131;DHT22;9191;54.324;10.126;2023-05-27T11:55:18;28.60;94.80
18131;DHT22;9191;54.324;10.126;2023-05-27T11:57:45;30.10;94.50
18131;DHT22;9191;54.324;10.126;2023-05-27T12:00:12;30.30;94.10
18131;DHT22;9191;54.324;10.126;2023-05-27T12:02:39;29.50;94.00
18131;DHT22;9191;54.324;10.126;2023-05-27T12:05:07;29.50;94.30
18131;DHT22;9191;54.324;10.126;2023-05-27T12:07:35;30.80;94.60
18131;DHT22;9191;54.324;10.126;2023-05-27T12:10:06;31.60;93.30
18131;DHT22;9191;54.324;10.126;2023-05-27T12:12:36;31.40;92.30
18131;DHT22;9191;54.324;10.126;2023-05-27T12:15:04;30.40;93.20
18131;DHT22;9191;54.324;10.126;2023-05-27T12:17:31;29.90;93.30
18131;DHT22;9191;54.324;10.126;2023-05-27T12:19:58;29.40;94.10
18131;DHT22;9191;54.324;10.126;2023-05-27T12:22:25;30.30;92.90
18131;DHT22;9191;54.324;10.126;2023-05-27T12:24:53;30.70;93.30
18131;DHT22;9191;54.324;10.126;2023-05-27T12:27:20;31.40;93.00
18131;DHT22;9191;54.324;10.126;2023-05-27T12:29:46;30.70;93.20
18131;DHT22;9191;54.324;10.126;2023-05-27T12:32:13;30.00;92.60
18131;DHT22;9191;54.324;10.126;2023-05-27T12:34:40;30.00;92.70
18131;DHT22;9191;54.324;10.126;2023-05-27T12:37:07;29.90;92.90
18131;DHT22;9191;54.324;10.126;2023-05-27T12:39:33;29.20;92.90
18131;DHT22;9191;54.324;10.126;2023-05-27T12:42:02;29.40;93.20
18131;DHT22;9191;54.324;10.126;2023-05-27T12:44:29;30.50;93.20
18131;DHT22;9191;54.324;10.126;2023-05-27T12:46:55;30.80;92.80
18131;DHT22;9191;54.324;10.126;2023-05-27T12:49:22;30.90;93.00
18131;DHT22;9191;54.324;10.126;2023-05-27T12:51:49;30.80;92.60
18131;DHT22;9191;54.324;10.126;2023-05-27T12:54:16;30.60;92.70
18131;DHT22;9191;54.324;10.126;2023-05-27T12:56:42;29.90;92.20
18131;DHT22;9191;54.324;10.126;2023-05-27T12:59:10;29.70;92.30
18131;DHT22;9191;54.324;10.126;2023-05-27T13:01:37;29.10;92.80
18131;DHT22;9191;54.324;10.126;2023-05-27T13:04:04;28.70;92.70
18131;DHT22;9191;54.324;10.126;2023-05-27T13:06:30;29.10;92.70
18131;DHT22;9191;54.324;10.126;2023-05-27T13:08:57;29.00;92.30
18131;DHT22;9191;54.324;10.126;2023-05-27T13:11:24;28.40;93.00
18131;DHT22;9191;54.324;10.126;2023-05-27T13:13:51;28.00;93.70
18131;DHT22;9191;54.324;10.126;2023-05-27T13:16:19;29.00;93.60
18131;DHT22;9191;54.324;10.126;2023-05-27T13:18:46;28.30;92.50
18131;DHT22;9191;54.324;10.126;2023-05-27T13:21:13;28.30;92.80
18131;DHT22;9191;54.324;10.126;2023-05-27T13:23:40;28.40;92.20
18131;DHT22;9191;54.324;10.126;2023-05-27T13:26:06;28.60;92.40
18131;DHT22;9191;54.324;10.126;2023-05-27T13:28:33;29.00;92.40
18131;DHT22;9191;54.324;10.126;2023-05-27T13:31:00;28.30;91.90
18131;DHT22;9191;54.324;10.126;2023-05-27T13:33:28;28.20;92.90
18131;DHT22;9191;54.324;10.126;2023-05-27T13:35:55;28.30;93.30
18131;DHT22;9191;54.324;10.126;2023-05-27T13:38:22;28.20;92.60
18131;DHT22;9191;54.324;10.126;2023-05-27T13:40:49;28.70;92.80
18131;DHT22;9191;54.324;10.126;2023-05-27T13:43:16;29.50;92.00
18131;DHT22;9191;54.324;10.126;2023-05-27T13:45:43;29.20;91.20
18131;DHT22;9191;54.324;10.126;2023-05-27T13:48:12;28.70;91.30
18131;DHT22;9191;54.324;10.126;2023-05-27T13:50:41;28.30;91.10
18131;DHT22;9191;54.324;10.126;2023-05-27T13:53:08;27.10;90.80
18131;DHT22;9191;54.324;10.126;2023-05-27T13:55:35;27.20;91.80
18131;DHT22;9191;54.324;10.126;2023-05-27T13:58:02;27.20;91.40
18131;DHT22;9191;54.324;10.126;2023-05-27T14:00:29;27.60;90.80
18131;DHT22;9191;54.324;10.126;2023-05-27T14:02:56;28.10;90.30
18131;DHT22;9191;54.324;10.126;2023-05-27T14:05:24;28.50;90.80
18131;DHT22;9191;54.324;10.126;2023-05-27T14:07:54;28.50;89.60
18131;DHT22;9191;54.324;10.126;2023-05-27T14:10:20;27.60;90.00
18131;DHT22;9191;54.324;10.126;2023-05-27T14:12:47;28.60;90.80
18131;DHT22;9191;54.324;10.126;2023-05-27T14:15:14;29.10;90.40
18131;DHT22;9191;54.324;10.126;2023-05-27T14:17:41;28.10;88.60
18131;DHT22;9191;54.324;10.126;2023-05-27T14:20:08;28.00;88.20
18131;DHT22;9191;54.324;10.126;2023-05-27T14:22:36;27.60;89.30
18131;DHT22;9191;54.324;10.126;2023-05-27T14:25:07;27.20;89.80
18131;DHT22;9191;54.324;10.126;2023-05-27T14:27:33;27.00;90.20
18131;DHT22;9191;54.324;10.126;2023-05-27T14:30:00;27.00;90.60
18131;DHT22;9191;54.324;10.126;2023-05-27T14:32:27;26.10;90.90
18131;DHT22;9191;54.324;10.126;2023-05-27T14:34:54;25.40;91.40
18131;DHT22;9191;54.324;10.126;2023-05-27T14:37:21;24.90;91.90
18131;DHT22;9191;54.324;10.126;2023-05-27T14:39:50;24.70;92.10
18131;DHT22;9191;54.324;10.126;2023-05-27T14:42:18;23.90;92.70
18131;DHT22;9191;54.324;10.126;2023-05-27T14:44:45;23.20;94.00
18131;DHT22;9191;54.324;10.126;2023-05-27T14:47:12;22.60;94.90
18131;DHT22;9191;54.324;10.126;2023-05-27T14:49:39;22.30;95.20
18131;DHT22;9191;54.324;10.126;2023-05-27T14:52:05;22.20;95.60
18131;DHT22;9191;54.324;10.126;2023-05-27T14:54:32;22.30;96.20
18131;DHT22;9191;54.324;10.126;2023-05-27T14:56:59;22.20;95.80
18131;DHT22;9191;54.324;10.126;2023-05-27T14:59:27;22.20;96.20
18131;DHT22;9191;54.324;10.126;2023-05-27T15:01:54;22.10;96.40
18131;DHT22;9191;54.324;10.126;2023-05-27T15:04:20;22.10;96.90
18131;DHT22;9191;54.324;10.126;2023-05-27T15:06:47;22.10;97.30
18131;DHT22;9191;54.324;10.126;2023-05-27T15:09:14;22.10;96.50
18131;DHT22;9191;54.324;10.126;2023-05-27T15:11:40;21.80;97.30
18131;DHT22;9191;54.324;10.126;2023-05-27T15:14:16;21.80;97.20
18131;DHT22;9191;54.324;10.126;2023-05-27T15:16:44;21.60;97.50
18131;DHT22;9191;54.324;10.126;2023-05-27T15:19:11;21.30;97.80
18131;DHT22;9191;54.324;10.126;2023-05-27T15:21:38;21.20;98.10
18131;DHT22;9191;54.324;10.126;2023-05-27T15:24:04;21.10;97.90
18131;DHT22;9191;54.324;10.126;2023-05-27T15:26:31;21.00;99.30
18131;DHT22;9191;54.324;10.126;2023-05-27T15:28:58;21.10;98.90
18131;DHT22;9191;54.324;10.126;2023-05-27T15:31:25;21.10;98.90
18131;DHT22;9191;54.324;10.126;2023-05-27T15:33:54;21.00;98.50
18131;DHT22;9191;54.324;10.126;2023-05-27T15:36:22;20.80;98.50
18131;DHT22;9191;54.324;10.126;2023-05-27T15:38:49;20.80;99.30